Thalia — FPCS — position and weather

sailwx.info

Track history (hours):
 
Tides and Currents Weather Stations Pressure Air Temp Water Temp Dewpoint Dewpoint Depression Visibility Wind Speed Wind Dir Waves Ship Positions

Oceanographic research ship Thalia (France)

Detailed information on ship capabilities available from University of Delaware's Ocean Information Center.

Last reported at 2019-Nov-09 05:29 UTC. Time now 2019-Dec-11 10:40 UTC.
Position N 47°45' W 003°21'.
Warning: this ship's position is 32 days out of date.

Length 25 m; beam 7 m.

Type: Fishing. MMSI: 227270000.

Date/timePositionNaut miles runAvg speedWind from/ knotsBaromVisibWave heightAir tempDewpointWater temp
2019-Nov-09 05:29N 47°45' W 003°21'0 0.0
2019-Nov-09 03:29N 47°45' W 003°21'0 0.0
2019-Nov-09 02:59N 47°45' W 003°21'0 0.0
2019-Nov-09 01:59N 47°45' W 003°21'0 0.0
2019-Nov-09 00:29N 47°45' W 003°21'0 0.0
2019-Nov-08 23:29N 47°45' W 003°21'0 0.0
2019-Nov-08 21:59N 47°45' W 003°21'0 0.0
2019-Nov-08 21:29N 47°45' W 003°21'0 0.0
2019-Nov-08 20:59N 47°45' W 003°21'0 0.0
2019-Nov-08 20:29N 47°45' W 003°21'0 0.0
2019-Nov-08 17:29N 47°45' W 003°21'0 0.0
2019-Nov-08 16:29N 47°45' W 003°21'0 0.0
2019-Nov-08 10:59N 47°45' W 003°21'1 0.9
2019-Nov-08 09:30N 47°44' W 003°22'0 0.0
2019-Nov-08 09:00N 47°44' W 003°22'0 0.0
2019-Nov-08 08:30N 47°44' W 003°22'0 0.0
2019-Nov-08 07:00N 47°44' W 003°22'0 0.0
2019-Nov-07 23:30N 47°44' W 003°22'0 0.0
2019-Nov-07 23:00N 47°44' W 003°22'0 0.0
2019-Nov-07 21:30N 47°44' W 003°22'0 0.0
2019-Nov-07 15:30N 47°44' W 003°22'0 0.0
2019-Nov-07 14:30N 47°44' W 003°22'0 0.0
2019-Nov-07 12:00N 47°44' W 003°22'0 0.0
2019-Nov-07 11:00N 47°44' W 003°22'0 0.0
2019-Nov-07 07:30N 47°44' W 003°22'0 0.0
2019-Nov-07 03:30N 47°44' W 003°22'0 0.0
2019-Nov-07 03:00N 47°44' W 003°22'0 0.0
2019-Nov-07 02:30N 47°44' W 003°22'29 5.3
2019-Nov-06 21:01N 47°20' W 002°57'14 2.6
2019-Nov-06 15:30N 47°22' W 002°36'2 3.6
2019-Nov-06 15:00N 47°21' W 002°34'2 4.2
2019-Nov-06 14:31N 47°21' W 002°31'0 0.0
2019-Nov-06 06:30N 47°21' W 002°31'0 0.0
2019-Nov-06 05:00N 47°21' W 002°31'0 0.0
2019-Nov-06 04:00N 47°21' W 002°31'0 0.0
2019-Nov-06 02:00N 47°21' W 002°31'0 0.0
2019-Nov-05 23:57N 47°21' W 002°31'0 0.0
2019-Nov-05 22:30N 47°21' W 002°31'0 0.0
2019-Nov-05 18:30N 47°21' W 002°31'0 0.0
2019-Nov-05 17:57N 47°21' W 002°31'0 0.0
2019-Nov-05 17:30N 47°21' W 002°31'0 0.0
2019-Nov-05 15:00N 47°21' W 002°31'0 0.0
2019-Nov-05 12:57N 47°21' W 002°31'10 2.3
2019-Nov-05 08:29N 47°13' W 002°21'7 0.8
2019-Nov-04 23:36N 47°17' W 002°12'0 0.0
2019-Nov-04 23:00N 47°17' W 002°12'0 0.0
2019-Nov-04 19:30N 47°17' W 002°12'  
2019-Nov-01 17:28N 47°17' W 002°12'7 2.1
2019-Nov-01 14:06N 47°11' W 002°18'11 4.3
2019-Nov-01 11:33N 47°08' W 002°33'7 2.2
2019-Nov-01 08:12N 47°12' W 002°43'2 8.4
2019-Nov-01 07:58N 47°13' W 002°45'4 8.5
2019-Nov-01 07:30N 47°15' W 002°50'4 8.6
2019-Nov-01 07:00N 47°16' W 002°56'4 8.7
2019-Nov-01 06:30N 47°19' W 003°01'2 4.4
2019-Nov-01 05:58N 47°19' W 003°05'0 0.0
2019-Nov-01 05:31N 47°19' W 003°05'0 0.0
2019-Nov-01 04:58N 47°19' W 003°05'0 0.0
2019-Nov-01 04:28N 47°19' W 003°05'0 0.0
2019-Nov-01 03:58N 47°19' W 003°05'0 0.0
2019-Nov-01 03:28N 47°19' W 003°05'0 0.0
2019-Nov-01 02:58N 47°19' W 003°05'0 0.0
2019-Nov-01 02:28N 47°19' W 003°05'0 0.0
2019-Nov-01 01:58N 47°19' W 003°05'0 0.0
2019-Nov-01 01:28N 47°19' W 003°05'0 0.0
2019-Nov-01 00:58N 47°19' W 003°05'0 0.0
2019-Nov-01 00:28N 47°19' W 003°05'0 0.0
2019-Oct-31 23:58N 47°19' W 003°05'0 0.0
2019-Oct-31 23:28N 47°19' W 003°05'0 0.0
2019-Oct-31 22:58N 47°19' W 003°05'0 0.0
2019-Oct-31 22:28N 47°19' W 003°05'0 0.0
2019-Oct-31 21:58N 47°19' W 003°05'0 0.0
2019-Oct-31 21:28N 47°19' W 003°05'0 0.0
2019-Oct-31 21:01N 47°19' W 003°05'0 0.0
2019-Oct-31 20:28N 47°19' W 003°05'0 0.0
2019-Oct-31 20:01N 47°19' W 003°05'0 0.0
2019-Oct-31 19:31N 47°19' W 003°05'0 0.0
2019-Oct-31 19:01N 47°19' W 003°05'0 0.0
2019-Oct-31 18:31N 47°19' W 003°05'0 0.0
2019-Oct-31 18:01N 47°19' W 003°05'0 0.0
2019-Oct-31 17:31N 47°19' W 003°05'1 2.5
2019-Oct-31 17:00N 47°19' W 003°03'4 8.7
2019-Oct-31 16:30N 47°17' W 002°57'4 8.9
2019-Oct-31 16:00N 47°15' W 002°51'3 6.7
2019-Oct-31 15:31N 47°13' W 002°47'0 0.8
2019-Oct-31 15:00N 47°13' W 002°47'1 2.3
2019-Oct-31 14:23N 47°14' W 002°45'2 5.3
2019-Oct-31 14:00N 47°16' W 002°43'3 6.8
2019-Oct-31 13:31N 47°19' W 002°41'1 1.5
2019-Oct-31 13:01N 47°19' W 002°40'1 2.3
2019-Oct-31 12:31N 47°19' W 002°38'2 3.2
2019-Oct-31 12:01N 47°19' W 002°40'1 1.0
2019-Oct-31 11:30N 47°19' W 002°39'2 4.9
2019-Oct-31 11:01N 47°17' W 002°42'2 4.7
2019-Oct-31 10:30N 47°15' W 002°44'2 4.3
2019-Oct-31 10:00N 47°14' W 002°46'1 2.2
2019-Oct-31 09:30N 47°13' W 002°45'2 4.6
2019-Oct-31 09:01N 47°12' W 002°43'2 5.0
2019-Oct-31 08:31N 47°11' W 002°39'3 5.3
2019-Oct-31 08:01N 47°09' W 002°36'18 4.8
2019-Oct-31 04:19N 47°16' W 002°12'  
Track history (hours):
 
Tides and Currents Weather Stations Pressure Air Temp Water Temp Dewpoint Dewpoint Depression Visibility Wind Speed Wind Dir Waves Ship Positions

Oceanographic research ship Thalia (France)

Detailed information on ship capabilities available from University of Delaware's Ocean Information Center.

Last reported at 2019-Nov-09 05:29 UTC. Time now 2019-Dec-11 10:40 UTC.
Position N 47°45' W 003°21'.
Warning: this ship's position is 32 days out of date.

Length 25 m; beam 7 m.

Type: Fishing. MMSI: 227270000.

Date/timePositionNaut miles runAvg speedWind from/ knotsBaromVisibWave heightAir tempDewpointWater temp
2019-Nov-09 05:29N 47°45' W 003°21'0 0.0
2019-Nov-09 03:29N 47°45' W 003°21'0 0.0
2019-Nov-09 02:59N 47°45' W 003°21'0 0.0
2019-Nov-09 01:59N 47°45' W 003°21'0 0.0
2019-Nov-09 00:29N 47°45' W 003°21'0 0.0
2019-Nov-08 23:29N 47°45' W 003°21'0 0.0
2019-Nov-08 21:59N 47°45' W 003°21'0 0.0
2019-Nov-08 21:29N 47°45' W 003°21'0 0.0
2019-Nov-08 20:59N 47°45' W 003°21'0 0.0
2019-Nov-08 20:29N 47°45' W 003°21'0 0.0
2019-Nov-08 17:29N 47°45' W 003°21'0 0.0
2019-Nov-08 16:29N 47°45' W 003°21'0 0.0
2019-Nov-08 10:59N 47°45' W 003°21'1 0.9
2019-Nov-08 09:30N 47°44' W 003°22'0 0.0
2019-Nov-08 09:00N 47°44' W 003°22'0 0.0
2019-Nov-08 08:30N 47°44' W 003°22'0 0.0
2019-Nov-08 07:00N 47°44' W 003°22'0 0.0
2019-Nov-07 23:30N 47°44' W 003°22'0 0.0
2019-Nov-07 23:00N 47°44' W 003°22'0 0.0
2019-Nov-07 21:30N 47°44' W 003°22'0 0.0
2019-Nov-07 15:30N 47°44' W 003°22'0 0.0
2019-Nov-07 14:30N 47°44' W 003°22'0 0.0
2019-Nov-07 12:00N 47°44' W 003°22'0 0.0
2019-Nov-07 11:00N 47°44' W 003°22'0 0.0
2019-Nov-07 07:30N 47°44' W 003°22'0 0.0
2019-Nov-07 03:30N 47°44' W 003°22'0 0.0
2019-Nov-07 03:00N 47°44' W 003°22'0 0.0
2019-Nov-07 02:30N 47°44' W 003°22'29 5.3
2019-Nov-06 21:01N 47°20' W 002°57'14 2.6
2019-Nov-06 15:30N 47°22' W 002°36'2 3.6
2019-Nov-06 15:00N 47°21' W 002°34'2 4.2
2019-Nov-06 14:31N 47°21' W 002°31'0 0.0
2019-Nov-06 06:30N 47°21' W 002°31'0 0.0
2019-Nov-06 05:00N 47°21' W 002°31'0 0.0
2019-Nov-06 04:00N 47°21' W 002°31'0 0.0
2019-Nov-06 02:00N 47°21' W 002°31'0 0.0
2019-Nov-05 23:57N 47°21' W 002°31'0 0.0
2019-Nov-05 22:30N 47°21' W 002°31'0 0.0
2019-Nov-05 18:30N 47°21' W 002°31'0 0.0
2019-Nov-05 17:57N 47°21' W 002°31'0 0.0
2019-Nov-05 17:30N 47°21' W 002°31'0 0.0
2019-Nov-05 15:00N 47°21' W 002°31'0 0.0
2019-Nov-05 12:57N 47°21' W 002°31'10 2.3
2019-Nov-05 08:29N 47°13' W 002°21'7 0.8
2019-Nov-04 23:36N 47°17' W 002°12'0 0.0
2019-Nov-04 23:00N 47°17' W 002°12'0 0.0
2019-Nov-04 19:30N 47°17' W 002°12'  
2019-Nov-01 17:28N 47°17' W 002°12'7 2.1
2019-Nov-01 14:06N 47°11' W 002°18'11 4.3
2019-Nov-01 11:33N 47°08' W 002°33'7 2.2
2019-Nov-01 08:12N 47°12' W 002°43'2 8.4
2019-Nov-01 07:58N 47°13' W 002°45'4 8.5
2019-Nov-01 07:30N 47°15' W 002°50'4 8.6
2019-Nov-01 07:00N 47°16' W 002°56'4 8.7
2019-Nov-01 06:30N 47°19' W 003°01'2 4.4
2019-Nov-01 05:58N 47°19' W 003°05'0 0.0
2019-Nov-01 05:31N 47°19' W 003°05'0 0.0
2019-Nov-01 04:58N 47°19' W 003°05'0 0.0
2019-Nov-01 04:28N 47°19' W 003°05'0 0.0
2019-Nov-01 03:58N 47°19' W 003°05'0 0.0
2019-Nov-01 03:28N 47°19' W 003°05'0 0.0
2019-Nov-01 02:58N 47°19' W 003°05'0 0.0
2019-Nov-01 02:28N 47°19' W 003°05'0 0.0
2019-Nov-01 01:58N 47°19' W 003°05'0 0.0
2019-Nov-01 01:28N 47°19' W 003°05'0 0.0
2019-Nov-01 00:58N 47°19' W 003°05'0 0.0
2019-Nov-01 00:28N 47°19' W 003°05'0 0.0
2019-Oct-31 23:58N 47°19' W 003°05'0 0.0
2019-Oct-31 23:28N 47°19' W 003°05'0 0.0
2019-Oct-31 22:58N 47°19' W 003°05'0 0.0
2019-Oct-31 22:28N 47°19' W 003°05'0 0.0
2019-Oct-31 21:58N 47°19' W 003°05'0 0.0
2019-Oct-31 21:28N 47°19' W 003°05'0 0.0
2019-Oct-31 21:01N 47°19' W 003°05'0 0.0
2019-Oct-31 20:28N 47°19' W 003°05'0 0.0
2019-Oct-31 20:01N 47°19' W 003°05'0 0.0
2019-Oct-31 19:31N 47°19' W 003°05'0 0.0
2019-Oct-31 19:01N 47°19' W 003°05'0 0.0
2019-Oct-31 18:31N 47°19' W 003°05'0 0.0
2019-Oct-31 18:01N 47°19' W 003°05'0 0.0
2019-Oct-31 17:31N 47°19' W 003°05'1 2.5
2019-Oct-31 17:00N 47°19' W 003°03'4 8.7
2019-Oct-31 16:30N 47°17' W 002°57'4 8.9
2019-Oct-31 16:00N 47°15' W 002°51'3 6.7
2019-Oct-31 15:31N 47°13' W 002°47'0 0.8
2019-Oct-31 15:00N 47°13' W 002°47'1 2.3
2019-Oct-31 14:23N 47°14' W 002°45'2 5.3
2019-Oct-31 14:00N 47°16' W 002°43'3 6.8
2019-Oct-31 13:31N 47°19' W 002°41'1 1.5
2019-Oct-31 13:01N 47°19' W 002°40'1 2.3
2019-Oct-31 12:31N 47°19' W 002°38'2 3.2
2019-Oct-31 12:01N 47°19' W 002°40'1 1.0
2019-Oct-31 11:30N 47°19' W 002°39'2 4.9
2019-Oct-31 11:01N 47°17' W 002°42'2 4.7
2019-Oct-31 10:30N 47°15' W 002°44'2 4.3
2019-Oct-31 10:00N 47°14' W 002°46'1 2.2
2019-Oct-31 09:30N 47°13' W 002°45'2 4.6
2019-Oct-31 09:01N 47°12' W 002°43'2 5.0
2019-Oct-31 08:31N 47°11' W 002°39'3 5.3
2019-Oct-31 08:01N 47°09' W 002°36'18 4.8
2019-Oct-31 04:19N 47°16' W 002°12'  

Dump ship's entire track history